Map

Track Data

SID SEASON NUMBER BASIN SUBBASIN NAME ISO_TIME NATURE LAT LON WMO_WIND WMO_PRES WMO_AGENCY TRACK_TYPE DIST2LAND LANDFALL IFLAG USA_AGENCY USA_ATCF_ID USA_LAT USA_LON USA_RECORD USA_STATUS USA_WIND USA_PRES USA_SSHS USA_R34_NE USA_R34_SE USA_R34_SW USA_R34_NW USA_R50_NE USA_R50_SE USA_R50_SW USA_R50_NW USA_R64_NE USA_R64_SE USA_R64_SW USA_R64_NW USA_POCI USA_ROCI USA_RMW USA_EYE TOKYO_LAT TOKYO_LON TOKYO_GRADE TOKYO_WIND TOKYO_PRES TOKYO_R50_DIR TOKYO_R50_LONG TOKYO_R50_SHORT TOKYO_R30_DIR TOKYO_R30_LONG TOKYO_R30_SHORT TOKYO_LAND CMA_LAT CMA_LON CMA_CAT CMA_WIND CMA_PRES HKO_LAT HKO_LON HKO_CAT HKO_WIND HKO_PRES NEWDELHI_LAT NEWDELHI_LON NEWDELHI_GRADE NEWDELHI_WIND NEWDELHI_PRES NEWDELHI_CI NEWDELHI_DP NEWDELHI_POCI REUNION_LAT REUNION_LON REUNION_TYPE REUNION_WIND REUNION_PRES REUNION_TNUM REUNION_CI REUNION_RMW REUNION_R34_NE REUNION_R34_SE REUNION_R34_SW REUNION_R34_NW REUNION_R50_NE REUNION_R50_SE REUNION_R50_SW REUNION_R50_NW REUNION_R64_NE REUNION_R64_SE REUNION_R64_SW REUNION_R64_NW BOM_LAT BOM_LON BOM_TYPE BOM_WIND BOM_PRES BOM_TNUM BOM_CI BOM_RMW BOM_R34_NE BOM_R34_SE BOM_R34_SW BOM_R34_NW BOM_R50_NE BOM_R50_SE BOM_R50_SW BOM_R50_NW BOM_R64_NE BOM_R64_SE BOM_R64_SW BOM_R64_NW BOM_ROCI BOM_POCI BOM_EYE BOM_POS_METHOD BOM_PRES_METHOD NADI_LAT NADI_LON NADI_CAT NADI_WIND NADI_PRES WELLINGTON_LAT WELLINGTON_LON WELLINGTON_WIND WELLINGTON_PRES DS824_LAT DS824_LON DS824_STAGE DS824_WIND DS824_PRES TD9636_LAT TD9636_LON TD9636_STAGE TD9636_WIND TD9636_PRES TD9635_LAT TD9635_LON TD9635_WIND TD9635_PRES TD9635_ROCI NEUMANN_LAT NEUMANN_LON NEUMANN_CLASS NEUMANN_WIND NEUMANN_PRES MLC_LAT MLC_LON MLC_CLASS MLC_WIND MLC_PRES USA_GUST BOM_GUST BOM_GUST_PER REUNION_GUST REUNION_GUST_PER USA_SEAHGT USA_SEARAD_NE USA_SEARAD_SE USA_SEARAD_SW USA_SEARAD_NW STORM_SPEED STORM_DIR
1986254N22309 1986 92 NA NA EARL 1986-09-10 18:00:00 TS 21.8000 -50.8000 30 1010 hurdat_atl main 1590 1557 O_____________ hurdat_atl AL091986 21.8000 -50.8000 TD 30 1010 -1 9 307
1986254N22309 1986 92 NA NA EARL 1986-09-10 21:00:00 TS 22.0827 -51.2072 main 1557 1525 P_____________ AL091986 22.0827 -51.2072 TD 32 1009 -1 10 309
1986254N22309 1986 92 NA NA EARL 1986-09-11 00:00:00 TS 22.4000 -51.6000 35 1009 hurdat_atl main 1525 1504 O_____________ hurdat_atl AL091986 22.4000 -51.6000 TS 35 1009 0 10 315
1986254N22309 1986 92 NA NA EARL 1986-09-11 03:00:00 TS 22.7774 -51.9651 main 1497 1481 P_____________ AL091986 22.7774 -51.9651 TS 40 1007 0 10 321
1986254N22309 1986 92 NA NA EARL 1986-09-11 06:00:00 TS 23.2000 -52.3000 45 1006 hurdat_atl main 1481 1468 O_____________ hurdat_atl AL091986 23.2000 -52.3000 TS 45 1006 0 11 325
1986254N22309 1986 92 NA NA EARL 1986-09-11 09:00:00 TS 23.6424 -52.6151 main 1468 1456 P_____________ AL091986 23.6424 -52.6151 TS 50 1004 0 11 329
1986254N22309 1986 92 NA NA EARL 1986-09-11 12:00:00 TS 24.1000 -52.9000 55 1002 hurdat_atl main 1461 1451 O_____________ hurdat_atl AL091986 24.1000 -52.9000 TS 55 1002 0 11 332
1986254N22309 1986 92 NA NA EARL 1986-09-11 15:00:00 TS 24.5724 -53.1651 main 1456 1452 P_____________ AL091986 24.5724 -53.1651 TS 62 1000 0 10 333
1986254N22309 1986 92 NA NA EARL 1986-09-11 18:00:00 TS 25.0000 -53.4000 70 999 hurdat_atl main 1459 1455 O_____________ hurdat_atl AL091986 25.0000 -53.4000 HU 70 999 1 8 332
1986254N22309 1986 92 NA NA EARL 1986-09-11 21:00:00 TS 25.3149 -53.6004 main 1457 1451 P_____________ AL091986 25.3149 -53.6004 HU 72 997 1 7 329
1986254N22309 1986 92 NA NA EARL 1986-09-12 00:00:00 TS 25.6000 -53.8000 75 996 hurdat_atl main 1457 1451 O_____________ hurdat_atl AL091986 25.6000 -53.8000 HU 75 996 1 8 328
1986254N22309 1986 92 NA NA EARL 1986-09-12 03:00:00 TS 25.9575 -54.0424 main 1464 1451 P_____________ AL091986 25.9575 -54.0424 HU 77 994 1 8 327
1986254N22309 1986 92 NA NA EARL 1986-09-12 06:00:00 TS 26.3000 -54.3000 80 993 hurdat_atl main 1457 1454 O_____________ hurdat_atl AL091986 26.3000 -54.3000 HU 80 993 1 8 324
1986254N22309 1986 92 NA NA EARL 1986-09-12 09:00:00 TS 26.5724 -54.5427 main 1461 1451 P_____________ AL091986 26.5724 -54.5427 HU 82 990 1 7 318
1986254N22309 1986 92 NA NA EARL 1986-09-12 12:00:00 TS 26.8000 -54.8000 85 988 hurdat_atl main 1451 1434 O_____________ hurdat_atl AL091986 26.8000 -54.8000 HU 85 988 2 7 307
1986254N22309 1986 92 NA NA EARL 1986-09-12 15:00:00 TS 26.9701 -55.1300 main 1442 1426 P_____________ AL091986 26.9701 -55.1300 HU 87 986 2 7 307
1986254N22309 1986 92 NA NA EARL 1986-09-12 18:00:00 TS 27.2000 -55.4000 90 985 hurdat_atl main 1433 1433 O_____________ hurdat_atl AL091986 27.2000 -55.4000 HU 90 985 2 7 333
1986254N22309 1986 92 NA NA EARL 1986-09-12 21:00:00 TS 27.6274 -55.5100 main 1456 1456 P_____________ AL091986 27.6274 -55.5100 HU 90 984 2 9 355
1986254N22309 1986 92 NA NA EARL 1986-09-13 00:00:00 TS 28.1000 -55.5000 90 983 hurdat_atl main 1494 1494 O_____________ hurdat_atl AL091986 28.1000 -55.5000 HU 90 983 2 8 5
1986254N22309 1986 92 NA NA EARL 1986-09-13 03:00:00 TS 28.4650 -55.4375 main 1533 1533 P_____________ AL091986 28.4650 -55.4375 HU 90 983 2 7 14
1986254N22309 1986 92 NA NA EARL 1986-09-13 06:00:00 TS 28.8000 -55.3000 90 983 hurdat_atl main 1563 1563 O_____________ hurdat_atl AL091986 28.8000 -55.3000 HU 90 983 2 8 23
1986254N22309 1986 92 NA NA EARL 1986-09-13 09:00:00 TS 29.1576 -55.1002 main 1609 1609 P_____________ AL091986 29.1576 -55.1002 HU 90 983 2 8 27
1986254N22309 1986 92 NA NA EARL 1986-09-13 12:00:00 TS 29.5000 -54.9000 90 983 hurdat_atl main 1647 1647 O_____________ hurdat_atl AL091986 29.5000 -54.9000 HU 90 983 2 7 19
1986254N22309 1986 92 NA NA EARL 1986-09-13 15:00:00 TS 29.8297 -54.8370 main 1678 1678 P_____________ AL091986 29.8297 -54.8370 HU 90 983 2 6 16
1986254N22309 1986 92 NA NA EARL 1986-09-13 18:00:00 TS 30.1000 -54.7000 90 983 hurdat_atl main 1709 1709 O_____________ hurdat_atl AL091986 30.1000 -54.7000 HU 90 983 2 7 46
1986254N22309 1986 92 NA NA EARL 1986-09-13 21:00:00 TS 30.2879 -54.2877 main 1751 1751 P_____________ AL091986 30.2879 -54.2877 HU 90 982 2 8 69
1986254N22309 1986 92 NA NA EARL 1986-09-14 00:00:00 TS 30.4000 -53.8000 90 982 hurdat_atl main 1766 1765 O_____________ hurdat_atl AL091986 30.4000 -53.8000 HU 90 982 2 8 76
1986254N22309 1986 92 NA NA EARL 1986-09-14 03:00:00 TS 30.4648 -53.4348 main 1768 1768 P_____________ AL091986 30.4648 -53.4348 HU 90 981 2 6 81
1986254N22309 1986 92 NA NA EARL 1986-09-14 06:00:00 TS 30.5000 -53.1000 90 980 hurdat_atl main 1778 1778 O_____________ hurdat_atl AL091986 30.5000 -53.1000 HU 90 980 2 6 81
1986254N22309 1986 92 NA NA EARL 1986-09-14 09:00:00 TS 30.5574 -52.7500 main 1778 1778 P_____________ AL091986 30.5574 -52.7500 HU 90 979 2 6 81
1986254N22309 1986 92 NA NA EARL 1986-09-14 12:00:00 TS 30.6000 -52.4000 90 979 hurdat_atl main 1782 1782 O_____________ hurdat_atl AL091986 30.6000 -52.4000 HU 90 979 2 6 84
1986254N22309 1986 92 NA NA EARL 1986-09-14 15:00:00 TS 30.6225 -52.0426 main 1784 1784 P_____________ AL091986 30.6225 -52.0426 HU 90 979 2 6 90
1986254N22309 1986 92 NA NA EARL 1986-09-14 18:00:00 TS 30.6000 -51.7000 90 979 hurdat_atl main 1785 1785 O_____________ hurdat_atl AL091986 30.6000 -51.7000 HU 90 979 2 6 99
1986254N22309 1986 92 NA NA EARL 1986-09-14 21:00:00 TS 30.5299 -51.3850 main 1799 1799 P_____________ AL091986 30.5299 -51.3850 HU 90 979 2 6 111
1986254N22309 1986 92 NA NA EARL 1986-09-15 00:00:00 TS 30.4000 -51.1000 90 980 hurdat_atl main 1812 1812 O_____________ hurdat_atl AL091986 30.4000 -51.1000 HU 90 980 2 6 124
1986254N22309 1986 92 NA NA EARL 1986-09-15 03:00:00 TS 30.2149 -50.8425 main 1837 1837 P_____________ AL091986 30.2149 -50.8425 HU 90 980 2 6 133
1986254N22309 1986 92 NA NA EARL 1986-09-15 06:00:00 TS 30.0000 -50.6000 90 980 hurdat_atl main 1861 1861 O_____________ hurdat_atl AL091986 30.0000 -50.6000 HU 90 980 2 6 134
1986254N22309 1986 92 NA NA EARL 1986-09-15 09:00:00 TS 29.8000 -50.3501 main 1886 1886 P_____________ AL091986 29.8000 -50.3501 HU 90 980 2 6 133
1986254N22309 1986 92 NA NA EARL 1986-09-15 12:00:00 TS 29.6000 -50.1000 90 981 hurdat_atl main 1911 1911 O_____________ hurdat_atl AL091986 29.6000 -50.1000 HU 90 981 2 6 134
1986254N22309 1986 92 NA NA EARL 1986-09-15 15:00:00 TS 29.3849 -49.8575 main 1936 1936 P_____________ AL091986 29.3849 -49.8575 HU 87 981 2 6 133
1986254N22309 1986 92 NA NA EARL 1986-09-15 18:00:00 TS 29.2000 -49.6000 85 982 hurdat_atl main 1962 1962 O_____________ hurdat_atl AL091986 29.2000 -49.6000 HU 85 982 2 6 121
1986254N22309 1986 92 NA NA EARL 1986-09-15 21:00:00 TS 29.0925 -49.3002 main 1977 1977 P_____________ AL091986 29.0925 -49.3002 HU 82 982 1 6 111
1986254N22309 1986 92 NA NA EARL 1986-09-16 00:00:00 TS 29.0000 -49.0000 80 983 hurdat_atl main 1993 1993 O_____________ hurdat_atl AL091986 29.0000 -49.0000 HU 80 983 1 6 118
1986254N22309 1986 92 NA NA EARL 1986-09-16 03:00:00 TS 28.8050 -48.6749 main 2020 2020 P_____________ AL091986 28.8050 -48.6749 HU 80 983 1 5 124
1986254N22309 1986 92 NA NA EARL 1986-09-16 06:00:00 TS 28.7000 -48.5000 80 983 hurdat_atl main 2034 2021 O_____________ hurdat_atl AL091986 28.7000 -48.5000 HU 80 983 1 1 41
1986254N22309 1986 92 NA NA EARL 1986-09-16 09:00:00 TS 28.8475 -48.6324 main 2021 1983 P_____________ AL091986 28.8475 -48.6324 HU 77 983 1 5 319
1986254N22309 1986 92 NA NA EARL 1986-09-16 12:00:00 TS 29.1000 -48.9000 75 984 hurdat_atl main 1983 1958 O_____________ hurdat_atl AL091986 29.1000 -48.9000 HU 75 984 1 6 319
1986254N22309 1986 92 NA NA EARL 1986-09-16 15:00:00 TS 29.2999 -49.0852 main 1958 1933 P_____________ AL091986 29.2999 -49.0852 HU 75 984 1 5 319
1986254N22309 1986 92 NA NA EARL 1986-09-16 18:00:00 TS 29.5000 -49.3000 75 984 hurdat_atl main 1933 1907 O_____________ hurdat_atl AL091986 29.5000 -49.3000 HU 75 984 1 6 310
1986254N22309 1986 92 NA NA EARL 1986-09-16 21:00:00 TS 29.6776 -49.6001 main 1907 1881 P_____________ AL091986 29.6776 -49.6001 HU 75 984 1 7 307
1986254N22309 1986 92 NA NA EARL 1986-09-17 00:00:00 TS 29.9000 -49.9000 75 985 hurdat_atl main 1881 1845 O_____________ hurdat_atl AL091986 29.9000 -49.9000 HU 75 985 1 7 321
1986254N22309 1986 92 NA NA EARL 1986-09-17 03:00:00 TS 30.2198 -50.1003 main 1845 1798 P_____________ AL091986 30.2198 -50.1003 HU 72 985 1 8 334
1986254N22309 1986 92 NA NA EARL 1986-09-17 06:00:00 TS 30.6000 -50.3000 70 985 hurdat_atl main 1798 1761 O_____________ hurdat_atl AL091986 30.6000 -50.3000 HU 70 985 1 9 328
1986254N22309 1986 92 NA NA EARL 1986-09-17 09:00:00 TS 30.9628 -50.6443 main 1750 1703 P_____________ AL091986 30.9628 -50.6443 HU 70 985 1 10 327
1986254N22309 1986 92 NA NA EARL 1986-09-17 12:00:00 TS 31.4000 -50.9000 70 986 hurdat_atl main 1703 1647 O_____________ hurdat_atl AL091986 31.4000 -50.9000 HU 70 986 1 10 349
1986254N22309 1986 92 NA NA EARL 1986-09-17 15:00:00 TS 31.9549 -50.8681 main 1636 1572 P_____________ AL091986 31.9549 -50.8681 HU 70 986 1 12 8
1986254N22309 1986 92 NA NA EARL 1986-09-17 18:00:00 TS 32.6000 -50.7000 70 986 hurdat_atl main 1572 1507 O_____________ hurdat_atl AL091986 32.6000 -50.7000 HU 70 986 1 13 10
1986254N22309 1986 92 NA NA EARL 1986-09-17 21:00:00 TS 33.2398 -50.5935 main 1507 1421 P_____________ AL091986 33.2398 -50.5935 HU 70 986 1 14 10
1986254N22309 1986 92 NA NA EARL 1986-09-18 00:00:00 TS 34.0000 -50.4000 70 987 hurdat_atl main 1421 1327 O_____________ hurdat_atl AL091986 34.0000 -50.4000 HU 70 987 1 18 14
1986254N22309 1986 92 NA NA EARL 1986-09-18 03:00:00 TS 34.9324 -50.0665 main 1327 1225 P_____________ AL091986 34.9324 -50.0665 HU 67 987 1 21 18
1986254N22309 1986 92 NA NA EARL 1986-09-18 06:00:00 TS 36.0000 -49.6000 65 988 hurdat_atl main 1216 1119 O_____________ hurdat_atl AL091986 36.0000 -49.6000 HU 65 988 1 23 22
1986254N22309 1986 92 NA NA EARL 1986-09-18 09:00:00 TS 37.0980 -49.0078 main 1111 1009 P_____________ AL091986 37.0980 -49.0078 HU 65 988 1 25 23
1986254N22309 1986 92 NA NA EARL 1986-09-18 12:00:00 TS 38.3000 -48.4000 65 989 hurdat_atl main 1002 884 O_____________ hurdat_atl AL091986 38.3000 -48.4000 HU 65 989 1 27 18
1986254N22309 1986 92 NA NA EARL 1986-09-18 15:00:00 TS 39.6343 -47.9467 main 888 775 P_____________ AL091986 39.6343 -47.9467 HU 65 989 1 28 14
1986254N22309 1986 92 NA NA EARL 1986-09-18 18:00:00 TS 41.0000 -47.5000 65 990 hurdat_atl main 771 692 O_____________ hurdat_atl AL091986 41.0000 -47.5000 HU 65 990 1 27 16
1986254N22309 1986 92 NA NA EARL 1986-09-18 21:00:00 TS 42.2496 -46.9417 main 697 639 P_____________ AL091986 42.2496 -46.9417 HU 62 991 0 27 20
1986254N22309 1986 92 NA NA EARL 1986-09-19 00:00:00 ET 43.5000 -46.3000 60 992 hurdat_atl main 638 607 O_____________ hurdat_atl AL091986 43.5000 -46.3000 EX 60 992 -4 27 20
1986254N22309 1986 92 NA NA EARL 1986-09-19 03:00:00 ET 44.8252 -45.6608 main 605 596 P_____________ AL091986 44.8252 -45.6608 EX 60 992 -4 29 22
1986254N22309 1986 92 NA NA EARL 1986-09-19 06:00:00 ET 46.2000 -44.8000 60 993 hurdat_atl main 607 607 O_____________ hurdat_atl AL091986 46.2000 -44.8000 EX 60 993 -4 31 29
1986254N22309 1986 92 NA NA EARL 1986-09-19 09:00:00 ET 47.5798 -43.4760 main 679 679 P_____________ AL091986 47.5798 -43.4760 EX 57 994 -4 34 34
1986254N22309 1986 92 NA NA EARL 1986-09-19 12:00:00 ET 49.0000 -42.0000 55 995 hurdat_atl main 796 796 O_____________ hurdat_atl AL091986 49.0000 -42.0000 EX 55 995 -4 33 31
1986254N22309 1986 92 NA NA EARL 1986-09-19 15:00:00 ET 50.3993 -40.9091 main 894 894 P_____________ AL091986 50.3993 -40.9091 EX 55 995 -4 34 28
1986254N22309 1986 92 NA NA EARL 1986-09-19 18:00:00 ET 52.0000 -39.5000 55 996 hurdat_atl main 924 779 O_____________ hurdat_atl AL091986 52.0000 -39.5000 EX 55 996 -4 42 33
1986254N22309 1986 92 NA NA EARL 1986-09-19 21:00:00 ET 53.9287 -37.1493 main 775 696 P_____________ AL091986 53.9287 -37.1493 EX 55 996 -4 51 39
1986254N22309 1986 92 NA NA EARL 1986-09-20 00:00:00 ET 56.0000 -34.0000 55 997 hurdat_atl main 698 O_____________ hurdat_atl AL091986 56.0000 -34.0000 EX 55 997 -4 54 40

About IBTrACS Database

This database is a web-friendly format of International Best Track Archive for Climate Stewardship (IBTrACS), a global best track data archive curated by NOAA dating back to 1842.

Updated: 2021-12-08